sensor_id;sensor_type;location;lat;lon;timestamp;pressure;altitude;pressure_sealevel;temperature;humidity
44079;BME280;29744;49.078;12.878;2023-04-20T00:04:41;96398.09;;;14.90;35.69
44079;BME280;29744;49.078;12.878;2023-04-20T00:09:42;96387.94;;;14.87;35.96
44079;BME280;29744;49.078;12.878;2023-04-20T00:14:42;96378.59;;;14.84;35.89
44079;BME280;29744;49.078;12.878;2023-04-20T00:19:43;96375.09;;;14.83;35.91
44079;BME280;29744;49.078;12.878;2023-04-20T00:24:43;96373.84;;;14.81;35.96
44079;BME280;29744;49.078;12.878;2023-04-20T00:29:43;96356.06;;;14.80;35.97
44079;BME280;29744;49.078;12.878;2023-04-20T00:34:43;96356.38;;;14.78;35.74
44079;BME280;29744;49.078;12.878;2023-04-20T00:39:44;96352.09;;;14.77;35.64
44079;BME280;29744;49.078;12.878;2023-04-20T00:44:44;96348.94;;;14.75;35.91
44079;BME280;29744;49.078;12.878;2023-04-20T00:49:44;96355.78;;;14.73;35.74
44079;BME280;29744;49.078;12.878;2023-04-20T00:54:45;96352.28;;;14.72;35.69
44079;BME280;29744;49.078;12.878;2023-04-20T00:59:45;96348.34;;;14.70;35.64
44079;BME280;29744;49.078;12.878;2023-04-20T01:04:46;96333.25;;;14.69;35.55
44079;BME280;29744;49.078;12.878;2023-04-20T01:09:46;96328.19;;;14.67;35.69
44079;BME280;29744;49.078;12.878;2023-04-20T01:14:46;96316.59;;;14.67;35.84
44079;BME280;29744;49.078;12.878;2023-04-20T01:19:47;96318.84;;;14.65;35.95
44079;BME280;29744;49.078;12.878;2023-04-20T01:29:48;96299.00;;;14.61;35.77
44079;BME280;29744;49.078;12.878;2023-04-20T01:34:48;96303.16;;;14.58;35.78
44079;BME280;29744;49.078;12.878;2023-04-20T01:39:49;96295.06;;;14.58;35.90
44079;BME280;29744;49.078;12.878;2023-04-20T01:44:49;96298.88;;;14.57;35.61
44079;BME280;29744;49.078;12.878;2023-04-20T01:49:50;96294.13;;;14.54;35.68
44079;BME280;29744;49.078;12.878;2023-04-20T01:54:50;96291.44;;;14.54;36.09
44079;BME280;29744;49.078;12.878;2023-04-20T01:59:50;96282.88;;;14.52;35.69
44079;BME280;29744;49.078;12.878;2023-04-20T02:04:50;96289.72;;;14.49;36.29
44079;BME280;29744;49.078;12.878;2023-04-20T02:09:52;96280.03;;;14.48;35.99
44079;BME280;29744;49.078;12.878;2023-04-20T02:14:52;96281.16;;;14.47;36.28
44079;BME280;29744;49.078;12.878;2023-04-20T02:19:52;96283.06;;;14.47;36.14
44079;BME280;29744;49.078;12.878;2023-04-20T02:24:53;96288.00;;;14.45;35.86
44079;BME280;29744;49.078;12.878;2023-04-20T02:29:53;96281.03;;;14.44;36.26
44079;BME280;29744;49.078;12.878;2023-04-20T02:34:53;96288.31;;;14.43;36.06
44079;BME280;29744;49.078;12.878;2023-04-20T02:39:53;96274.38;;;14.41;36.22
44079;BME280;29744;49.078;12.878;2023-04-20T02:44:54;96273.91;;;14.39;35.99
44079;BME280;29744;49.078;12.878;2023-04-20T02:49:54;96275.03;;;14.38;36.31
44079;BME280;29744;49.078;12.878;2023-04-20T02:54:55;96275.34;;;14.37;35.88
44079;BME280;29744;49.078;12.878;2023-04-20T02:59:55;96278.03;;;14.37;36.10
44079;BME280;29744;49.078;12.878;2023-04-20T03:04:56;96274.88;;;14.35;35.91
44079;BME280;29744;49.078;12.878;2023-04-20T03:09:56;96272.19;;;14.35;36.32
44079;BME280;29744;49.078;12.878;2023-04-20T03:14:56;96264.41;;;14.33;36.29
44079;BME280;29744;49.078;12.878;2023-04-20T03:19:57;96264.75;;;14.32;36.27
44079;BME280;29744;49.078;12.878;2023-04-20T03:24:57;96269.03;;;14.33;35.94
44079;BME280;29744;49.078;12.878;2023-04-20T03:29:57;96273.94;;;14.31;35.86
44079;BME280;29744;49.078;12.878;2023-04-20T03:34:59;96270.78;;;14.29;36.04
44079;BME280;29744;49.078;12.878;2023-04-20T03:39:59;96272.38;;;14.30;36.33
44079;BME280;29744;49.078;12.878;2023-04-20T03:45:00;96270.00;;;14.28;36.24
44079;BME280;29744;49.078;12.878;2023-04-20T03:50:00;96262.06;;;14.32;36.41
44079;BME280;29744;49.078;12.878;2023-04-20T03:55:00;96262.97;;;14.36;36.20
44079;BME280;29744;49.078;12.878;2023-04-20T04:00:01;96262.47;;;14.42;36.43
44079;BME280;29744;49.078;12.878;2023-04-20T04:05:01;96253.53;;;14.50;35.80
44079;BME280;29744;49.078;12.878;2023-04-20T04:10:02;96255.84;;;14.61;36.12
44079;BME280;29744;49.078;12.878;2023-04-20T04:15:05;96257.03;;;14.72;36.14
44079;BME280;29744;49.078;12.878;2023-04-20T04:20:06;96250.91;;;14.83;35.96
44079;BME280;29744;49.078;12.878;2023-04-20T04:25:08;96249.84;;;14.97;35.72
44079;BME280;29744;49.078;12.878;2023-04-20T04:30:10;96252.63;;;15.09;35.67
44079;BME280;29744;49.078;12.878;2023-04-20T04:35:11;96254.25;;;15.22;35.59
44079;BME280;29744;49.078;12.878;2023-04-20T04:40:11;96257.47;;;15.36;35.68
44079;BME280;29744;49.078;12.878;2023-04-20T04:45:12;96243.97;;;15.49;35.13
44079;BME280;29744;49.078;12.878;2023-04-20T04:50:12;96247.84;;;15.60;35.48
44079;BME280;29744;49.078;12.878;2023-04-20T04:55:13;96250.56;;;15.72;34.96
44079;BME280;29744;49.078;12.878;2023-04-20T05:00:13;96247.78;;;15.81;34.99
44079;BME280;29744;49.078;12.878;2023-04-20T05:05:15;96243.06;;;15.90;34.79
44079;BME280;29744;49.078;12.878;2023-04-20T05:10:15;96240.59;;;15.97;35.14
44079;BME280;29744;49.078;12.878;2023-04-20T05:15:16;96242.28;;;16.01;34.82
44079;BME280;29744;49.078;12.878;2023-04-20T05:20:17;96245.91;;;16.05;34.46
44079;BME280;29744;49.078;12.878;2023-04-20T05:25:17;96258.75;;;16.08;34.72
44079;BME280;29744;49.078;12.878;2023-04-20T05:30:17;96263.47;;;16.12;34.83
44079;BME280;29744;49.078;12.878;2023-04-20T05:35:19;96264.28;;;16.12;34.39
44079;BME280;29744;49.078;12.878;2023-04-20T05:40:19;96265.84;;;16.13;34.46
44079;BME280;29744;49.078;12.878;2023-04-20T05:45:19;96266.63;;;16.14;34.57
44079;BME280;29744;49.078;12.878;2023-04-20T05:50:20;96267.44;;;16.14;34.20
44079;BME280;29744;49.078;12.878;2023-04-20T05:55:21;96264.72;;;16.14;34.36
44079;BME280;29744;49.078;12.878;2023-04-20T06:00:22;96268.56;;;16.13;34.39
44079;BME280;29744;49.078;12.878;2023-04-20T06:05:23;96260.00;;;16.11;34.29
44079;BME280;29744;49.078;12.878;2023-04-20T06:10:23;96264.28;;;16.12;34.44
44079;BME280;29744;49.078;12.878;2023-04-20T06:15:24;96262.69;;;16.11;34.08
44079;BME280;29744;49.078;12.878;2023-04-20T06:20:24;96256.84;;;16.09;34.55
44079;BME280;29744;49.078;12.878;2023-04-20T06:25:24;96274.53;;;16.06;34.33
44079;BME280;29744;49.078;12.878;2023-04-20T06:30:24;96267.88;;;16.04;34.52
44079;BME280;29744;49.078;12.878;2023-04-20T06:35:25;96267.75;;;16.00;34.28
44079;BME280;29744;49.078;12.878;2023-04-20T06:40:26;96269.22;;;15.98;34.56
44079;BME280;29744;49.078;12.878;2023-04-20T06:45:26;96261.00;;;15.94;34.34
44079;BME280;29744;49.078;12.878;2023-04-20T06:50:26;96253.56;;;15.91;34.35
44079;BME280;29744;49.078;12.878;2023-04-20T06:55:26;96243.41;;;15.88;34.57
44079;BME280;29744;49.078;12.878;2023-04-20T07:00:27;96250.28;;;15.86;34.59
44079;BME280;29744;49.078;12.878;2023-04-20T07:05:27;96246.34;;;15.83;34.34
44079;BME280;29744;49.078;12.878;2023-04-20T07:10:27;96238.09;;;15.80;34.74
44079;BME280;29744;49.078;12.878;2023-04-20T07:15:28;96239.53;;;15.77;34.35
44079;BME280;29744;49.078;12.878;2023-04-20T07:20:28;96232.09;;;15.74;34.49
44079;BME280;29744;49.078;12.878;2023-04-20T07:25:29;96229.59;;;15.69;34.82
44079;BME280;29744;49.078;12.878;2023-04-20T07:30:31;96236.13;;;15.68;34.31
44079;BME280;29744;49.078;12.878;2023-04-20T07:35:32;96233.78;;;15.66;34.65
44079;BME280;29744;49.078;12.878;2023-04-20T07:40:32;96229.81;;;15.64;34.65
44079;BME280;29744;49.078;12.878;2023-04-20T07:45:32;96225.88;;;15.61;35.00
44079;BME280;29744;49.078;12.878;2023-04-20T07:50:33;96230.50;;;15.61;34.45
44079;BME280;29744;49.078;12.878;2023-04-20T07:55:33;96224.63;;;15.59;34.73
44079;BME280;29744;49.078;12.878;2023-04-20T08:00:33;96222.28;;;15.57;34.79
44079;BME280;29744;49.078;12.878;2023-04-20T08:05:36;96218.78;;;15.57;34.83
44079;BME280;29744;49.078;12.878;2023-04-20T08:10:36;96219.44;;;15.54;34.62
44079;BME280;29744;49.078;12.878;2023-04-20T08:15:37;96215.16;;;15.53;34.73
44079;BME280;29744;49.078;12.878;2023-04-20T08:20:37;96217.75;;;15.49;35.12
44079;BME280;29744;49.078;12.878;2023-04-20T08:25:38;96206.47;;;15.47;34.62
44079;BME280;29744;49.078;12.878;2023-04-20T08:30:39;96204.44;;;15.44;34.87
44079;BME280;29744;49.078;12.878;2023-04-20T08:35:40;96197.81;;;15.41;35.05
44079;BME280;29744;49.078;12.878;2023-04-20T08:40:40;96186.53;;;15.39;34.81
44079;BME280;29744;49.078;12.878;2023-04-20T08:45:45;96191.50;;;15.37;34.87
44079;BME280;29744;49.078;12.878;2023-04-20T08:50:49;96187.53;;;15.35;35.04
44079;BME280;29744;49.078;12.878;2023-04-20T08:55:49;96193.28;;;15.33;34.71
44079;BME280;29744;49.078;12.878;2023-04-20T09:00:50;96187.41;;;15.31;35.14
44079;BME280;29744;49.078;12.878;2023-04-20T09:05:50;96182.34;;;15.30;34.86
44079;BME280;29744;49.078;12.878;2023-04-20T09:10:50;96181.91;;;15.28;34.91
44079;BME280;29744;49.078;12.878;2023-04-20T09:15:50;96188.75;;;15.25;34.68
44079;BME280;29744;49.078;12.878;2023-04-20T09:20:51;96188.31;;;15.23;34.67
44079;BME280;29744;49.078;12.878;2023-04-20T09:25:51;96177.84;;;15.22;34.77
44079;BME280;29744;49.078;12.878;2023-04-20T09:30:52;96155.44;;;15.21;34.98
44079;BME280;29744;49.078;12.878;2023-04-20T09:35:52;96143.06;;;15.20;34.97
44079;BME280;29744;49.078;12.878;2023-04-20T09:40:52;96134.16;;;15.20;35.26
44079;BME280;29744;49.078;12.878;2023-04-20T09:45:53;96130.66;;;15.19;34.99
44079;BME280;29744;49.078;12.878;2023-04-20T09:50:55;96141.47;;;15.19;34.91
44079;BME280;29744;49.078;12.878;2023-04-20T09:55:56;96137.97;;;15.19;35.12
44079;BME280;29744;49.078;12.878;2023-04-20T10:00:57;96144.50;;;15.18;35.29
44079;BME280;29744;49.078;12.878;2023-04-20T10:05:57;96131.34;;;15.16;35.35
44079;BME280;29744;49.078;12.878;2023-04-20T10:10:58;96127.06;;;15.15;35.03
44079;BME280;29744;49.078;12.878;2023-04-20T10:15:58;96135.16;;;15.15;34.82
44079;BME280;29744;49.078;12.878;2023-04-20T10:21:06;96127.38;;;15.13;35.29
44079;BME280;29744;49.078;12.878;2023-04-20T10:26:10;96122.00;;;15.13;35.14
44079;BME280;29744;49.078;12.878;2023-04-20T10:31:12;96120.41;;;15.12;35.20
44079;BME280;29744;49.078;12.878;2023-04-20T10:36:22;96111.19;;;15.13;34.70
44079;BME280;29744;49.078;12.878;2023-04-20T10:41:22;96097.22;;;15.11;35.22
44079;BME280;29744;49.078;12.878;2023-04-20T10:46:23;96099.13;;;15.11;35.11
44079;BME280;29744;49.078;12.878;2023-04-20T10:51:24;96091.03;;;15.11;35.29
44079;BME280;29744;49.078;12.878;2023-04-20T10:56:25;96087.53;;;15.10;35.17
44079;BME280;29744;49.078;12.878;2023-04-20T11:01:30;96085.63;;;15.11;35.05
44079;BME280;29744;49.078;12.878;2023-04-20T11:06:30;96086.44;;;15.11;35.19
44079;BME280;29744;49.078;12.878;2023-04-20T11:11:31;96082.16;;;15.10;35.36
44079;BME280;29744;49.078;12.878;2023-04-20T11:16:32;96069.44;;;15.11;35.33
44079;BME280;29744;49.078;12.878;2023-04-20T11:21:40;96078.19;;;15.08;35.29
44079;BME280;29744;49.078;12.878;2023-04-20T11:26:41;96079.00;;;15.08;35.40
44079;BME280;29744;49.078;12.878;2023-04-20T11:31:49;96059.31;;;15.08;34.99
44079;BME280;29744;49.078;12.878;2023-04-20T11:36:50;96050.47;;;14.99;35.17
44079;BME280;29744;49.078;12.878;2023-04-20T11:41:50;96047.59;;;15.04;35.13
44079;BME280;29744;49.078;12.878;2023-04-20T11:46:53;96041.84;;;15.05;35.17
44079;BME280;29744;49.078;12.878;2023-04-20T11:51:54;96036.00;;;15.03;34.85
44079;BME280;29744;49.078;12.878;2023-04-20T11:56:54;96037.91;;;15.03;35.19
44079;BME280;29744;49.078;12.878;2023-04-20T12:01:55;96033.59;;;15.02;35.15
44079;BME280;29744;49.078;12.878;2023-04-20T12:06:56;96023.13;;;15.00;34.93
44079;BME280;29744;49.078;12.878;2023-04-20T12:12:04;96029.31;;;15.01;35.14
44079;BME280;29744;49.078;12.878;2023-04-20T12:17:04;96033.16;;;15.00;35.48
44079;BME280;29744;49.078;12.878;2023-04-20T12:22:05;96030.44;;;15.00;35.36
44079;BME280;29744;49.078;12.878;2023-04-20T12:27:05;96029.66;;;14.99;35.13
44079;BME280;29744;49.078;12.878;2023-04-20T12:32:05;96023.47;;;14.99;34.95
44079;BME280;29744;49.078;12.878;2023-04-20T12:37:06;96020.78;;;14.99;35.18
44079;BME280;29744;49.078;12.878;2023-04-20T12:42:06;96012.69;;;14.99;35.46
44079;BME280;29744;49.078;12.878;2023-04-20T12:47:06;96009.19;;;14.98;34.97
44079;BME280;29744;49.078;12.878;2023-04-20T12:52:06;96011.88;;;14.98;35.53
44079;BME280;29744;49.078;12.878;2023-04-20T12:57:07;96006.03;;;14.96;35.42
44079;BME280;29744;49.078;12.878;2023-04-20T13:02:07;96005.25;;;14.96;35.37
44079;BME280;29744;49.078;12.878;2023-04-20T13:07:07;95996.69;;;14.94;35.38
44079;BME280;29744;49.078;12.878;2023-04-20T13:12:08;96003.56;;;14.91;35.11
44079;BME280;29744;49.078;12.878;2023-04-20T13:17:08;95992.31;;;14.89;35.19
44079;BME280;29744;49.078;12.878;2023-04-20T13:22:09;95988.81;;;14.89;35.24
44079;BME280;29744;49.078;12.878;2023-04-20T13:27:09;95986.91;;;14.89;35.15
44079;BME280;29744;49.078;12.878;2023-04-20T13:32:09;95988.03;;;14.88;35.17
44079;BME280;29744;49.078;12.878;2023-04-20T13:37:10;95984.22;;;14.89;34.86
44079;BME280;29744;49.078;12.878;2023-04-20T13:42:11;95991.53;;;14.89;34.66
44079;BME280;29744;49.078;12.878;2023-04-20T13:47:11;95993.44;;;14.88;34.81
44079;BME280;29744;49.078;12.878;2023-04-20T13:52:11;95993.75;;;14.87;34.83
44079;BME280;29744;49.078;12.878;2023-04-20T13:57:11;95991.06;;;14.87;34.94
44079;BME280;29744;49.078;12.878;2023-04-20T14:02:12;95987.56;;;14.86;35.22
44079;BME280;29744;49.078;12.878;2023-04-20T14:07:12;95975.19;;;14.85;35.03
44079;BME280;29744;49.078;12.878;2023-04-20T14:12:13;95963.63;;;14.85;35.20
44079;BME280;29744;49.078;12.878;2023-04-20T14:17:13;95951.59;;;14.82;35.36
44079;BME280;29744;49.078;12.878;2023-04-20T14:22:14;95954.28;;;14.82;35.10
44079;BME280;29744;49.078;12.878;2023-04-20T14:27:14;95939.22;;;14.81;35.08
44079;BME280;29744;49.078;12.878;2023-04-20T14:32:15;95939.53;;;14.79;34.96
44079;BME280;29744;49.078;12.878;2023-04-20T14:37:15;95938.75;;;14.79;35.44
44079;BME280;29744;49.078;12.878;2023-04-20T14:42:15;95934.47;;;14.78;35.18
44079;BME280;29744;49.078;12.878;2023-04-20T14:47:15;95934.47;;;14.78;35.49
44079;BME280;29744;49.078;12.878;2023-04-20T14:52:16;95935.59;;;14.77;35.46
44079;BME280;29744;49.078;12.878;2023-04-20T14:57:16;95942.13;;;14.76;35.20
44079;BME280;29744;49.078;12.878;2023-04-20T15:02:16;95933.25;;;14.75;34.99
44079;BME280;29744;49.078;12.878;2023-04-20T15:07:19;95933.59;;;14.74;35.35
44079;BME280;29744;49.078;12.878;2023-04-20T15:12:19;95919.31;;;14.73;35.05
44079;BME280;29744;49.078;12.878;2023-04-20T15:17:20;95922.44;;;14.75;35.31
44079;BME280;29744;49.078;12.878;2023-04-20T15:22:20;95906.38;;;14.79;34.96
44079;BME280;29744;49.078;12.878;2023-04-20T15:27:21;95908.84;;;14.84;35.48
44079;BME280;29744;49.078;12.878;2023-04-20T15:32:21;95906.38;;;14.91;35.16
44079;BME280;29744;49.078;12.878;2023-04-20T15:37:21;95907.03;;;15.00;35.33
44079;BME280;29744;49.078;12.878;2023-04-20T15:42:21;95897.25;;;15.08;35.53
44079;BME280;29744;49.078;12.878;2023-04-20T15:47:22;95908.38;;;15.19;35.42
44079;BME280;29744;49.078;12.878;2023-04-20T15:52:22;95912.97;;;15.30;35.04
44079;BME280;29744;49.078;12.878;2023-04-20T15:57:22;95910.25;;;15.42;35.11
44079;BME280;29744;49.078;12.878;2023-04-20T16:02:22;95921.81;;;15.55;35.02
44079;BME280;29744;49.078;12.878;2023-04-20T16:07:23;95921.44;;;15.69;35.17
44079;BME280;29744;49.078;12.878;2023-04-20T16:12:23;95928.06;;;15.84;35.04
44079;BME280;29744;49.078;12.878;2023-04-20T16:17:23;95937.69;;;15.97;34.64
44079;BME280;29744;49.078;12.878;2023-04-20T16:22:24;95937.63;;;16.09;34.72
44079;BME280;29744;49.078;12.878;2023-04-20T16:27:24;95943.00;;;16.21;34.73
44079;BME280;29744;49.078;12.878;2023-04-20T16:32:25;95943.63;;;16.30;34.66
44079;BME280;29744;49.078;12.878;2023-04-20T16:37:26;95942.31;;;16.40;34.45
44079;BME280;29744;49.078;12.878;2023-04-20T16:42:26;95933.63;;;16.47;34.42
44079;BME280;29744;49.078;12.878;2023-04-20T16:47:26;95932.25;;;16.53;34.30
44079;BME280;29744;49.078;12.878;2023-04-20T16:52:27;95942.06;;;16.57;34.46
44079;BME280;29744;49.078;12.878;2023-04-20T16:57:27;95934.03;;;16.61;34.18
44079;BME280;29744;49.078;12.878;2023-04-20T17:02:27;95941.44;;;16.64;34.29
44079;BME280;29744;49.078;12.878;2023-04-20T17:07:31;95941.09;;;16.65;34.14
44079;BME280;29744;49.078;12.878;2023-04-20T17:12:32;95941.88;;;16.66;34.10
44079;BME280;29744;49.078;12.878;2023-04-20T17:17:35;95954.28;;;16.67;33.81
44079;BME280;29744;49.078;12.878;2023-04-20T17:22:36;95951.94;;;16.65;33.97
44079;BME280;29744;49.078;12.878;2023-04-20T17:27:36;95963.88;;;16.64;33.92
44079;BME280;29744;49.078;12.878;2023-04-20T17:32:36;95958.03;;;16.62;34.37
44079;BME280;29744;49.078;12.878;2023-04-20T17:37:37;95961.09;;;16.61;34.09
44079;BME280;29744;49.078;12.878;2023-04-20T17:42:37;95961.78;;;16.58;34.17
44079;BME280;29744;49.078;12.878;2023-04-20T17:47:37;95967.53;;;16.56;34.06
44079;BME280;29744;49.078;12.878;2023-04-20T17:52:38;95967.09;;;16.54;34.47
44079;BME280;29744;49.078;12.878;2023-04-20T17:57:39;95971.28;;;16.52;34.31
44079;BME280;29744;49.078;12.878;2023-04-20T18:02:39;95982.09;;;16.52;33.89
44079;BME280;29744;49.078;12.878;2023-04-20T18:07:39;95975.44;;;16.49;34.49
44079;BME280;29744;49.078;12.878;2023-04-20T18:12:41;95973.88;;;16.48;33.98
44079;BME280;29744;49.078;12.878;2023-04-20T18:17:41;95983.47;;;16.46;34.32
44079;BME280;29744;49.078;12.878;2023-04-20T18:22:43;95979.19;;;16.45;34.14
44079;BME280;29744;49.078;12.878;2023-04-20T18:27:44;95976.84;;;16.43;34.32
44079;BME280;29744;49.078;12.878;2023-04-20T18:32:45;95986.09;;;16.42;34.18
44079;BME280;29744;49.078;12.878;2023-04-20T18:37:45;95986.44;;;16.40;34.47
44079;BME280;29744;49.078;12.878;2023-04-20T18:42:45;95989.16;;;16.40;34.32
44079;BME280;29744;49.078;12.878;2023-04-20T18:47:45;95987.09;;;16.37;34.63
44079;BME280;29744;49.078;12.878;2023-04-20T18:52:46;95983.59;;;16.37;34.50
44079;BME280;29744;49.078;12.878;2023-04-20T18:57:46;95988.59;;;16.35;34.36
44079;BME280;29744;49.078;12.878;2023-04-20T19:02:46;95998.63;;;16.34;34.18
44079;BME280;29744;49.078;12.878;2023-04-20T19:07:47;95998.63;;;16.34;34.33
44079;BME280;29744;49.078;12.878;2023-04-20T19:12:47;95993.91;;;16.31;34.51
44079;BME280;29744;49.078;12.878;2023-04-20T19:17:47;96001.22;;;16.31;34.40
44079;BME280;29744;49.078;12.878;2023-04-20T19:22:48;96007.78;;;16.30;34.38
44079;BME280;29744;49.078;12.878;2023-04-20T19:27:48;96008.13;;;16.28;34.52
44079;BME280;29744;49.078;12.878;2023-04-20T19:32:48;96010.81;;;16.28;34.49
44079;BME280;29744;49.078;12.878;2023-04-20T19:37:49;96010.38;;;16.26;34.61
44079;BME280;29744;49.078;12.878;2023-04-20T19:42:49;96003.41;;;16.25;34.47
44079;BME280;29744;49.078;12.878;2023-04-20T19:47:50;96005.66;;;16.23;34.50
44079;BME280;29744;49.078;12.878;2023-04-20T19:52:50;95993.25;;;16.22;34.70
44079;BME280;29744;49.078;12.878;2023-04-20T19:57:51;95994.41;;;16.21;34.41
44079;BME280;29744;49.078;12.878;2023-04-20T20:02:51;96000.94;;;16.20;34.58
44079;BME280;29744;49.078;12.878;2023-04-20T20:07:51;95997.44;;;16.20;34.42
44079;BME280;29744;49.078;12.878;2023-04-20T20:12:51;96001.63;;;16.17;34.45
44079;BME280;29744;49.078;12.878;2023-04-20T20:17:52;96015.16;;;16.17;34.65
44079;BME280;29744;49.078;12.878;2023-04-20T20:22:55;96020.13;;;16.15;34.70
44079;BME280;29744;49.078;12.878;2023-04-20T20:27:55;96022.38;;;16.13;34.38
44079;BME280;29744;49.078;12.878;2023-04-20T20:32:55;96026.56;;;16.10;34.73
44079;BME280;29744;49.078;12.878;2023-04-20T20:37:58;96026.56;;;16.10;34.91
44079;BME280;29744;49.078;12.878;2023-04-20T20:42:59;96026.47;;;16.07;34.78
44079;BME280;29744;49.078;12.878;2023-04-20T20:47:59;96023.31;;;16.05;34.80
44079;BME280;29744;49.078;12.878;2023-04-20T20:53:00;96024.78;;;16.02;34.76
44079;BME280;29744;49.078;12.878;2023-04-20T20:58:00;96036.72;;;16.01;34.58
44079;BME280;29744;49.078;12.878;2023-04-20T21:03:00;96045.53;;;15.98;34.93
44079;BME280;29744;49.078;12.878;2023-04-20T21:08:01;96042.72;;;15.95;34.70
44079;BME280;29744;49.078;12.878;2023-04-20T21:13:01;96045.75;;;15.93;34.58
44079;BME280;29744;49.078;12.878;2023-04-20T21:18:03;96046.44;;;15.90;35.07
44079;BME280;29744;49.078;12.878;2023-04-20T21:23:03;96053.31;;;15.88;34.70
44079;BME280;29744;49.078;12.878;2023-04-20T21:28:03;96055.59;;;15.86;34.89
44079;BME280;29744;49.078;12.878;2023-04-20T21:33:04;96054.69;;;15.82;34.81
44079;BME280;29744;49.078;12.878;2023-04-20T21:38:04;96055.03;;;15.80;35.14
44079;BME280;29744;49.078;12.878;2023-04-20T21:43:04;96055.69;;;15.77;35.22
44079;BME280;29744;49.078;12.878;2023-04-20T21:48:05;96053.31;;;15.75;34.93
44079;BME280;29744;49.078;12.878;2023-04-20T21:53:05;96058.28;;;15.73;34.68
44079;BME280;29744;49.078;12.878;2023-04-20T21:58:05;96060.53;;;15.71;35.01
44079;BME280;29744;49.078;12.878;2023-04-20T22:03:06;96051.19;;;15.69;34.93
44079;BME280;29744;49.078;12.878;2023-04-20T22:08:06;96048.38;;;15.65;35.05
44079;BME280;29744;49.078;12.878;2023-04-20T22:13:06;96053.34;;;15.63;34.95
44079;BME280;29744;49.078;12.878;2023-04-20T22:18:07;96054.47;;;15.62;35.07
44079;BME280;29744;49.078;12.878;2023-04-20T22:23:10;96052.44;;;15.59;35.13
44079;BME280;29744;49.078;12.878;2023-04-20T22:28:10;96057.41;;;15.57;35.16
44079;BME280;29744;49.078;12.878;2023-04-20T22:33:10;96057.72;;;15.56;34.81
44079;BME280;29744;49.078;12.878;2023-04-20T22:38:11;96066.19;;;15.54;35.16
44079;BME280;29744;49.078;12.878;2023-04-20T22:43:11;96061.44;;;15.51;34.91
44079;BME280;29744;49.078;12.878;2023-04-20T22:48:11;96070.69;;;15.50;34.86
44079;BME280;29744;49.078;12.878;2023-04-20T22:53:12;96070.56;;;15.46;35.42
44079;BME280;29744;49.078;12.878;2023-04-20T22:58:12;96070.91;;;15.45;35.49
44079;BME280;29744;49.078;12.878;2023-04-20T23:03:13;96066.97;;;15.42;35.28
44079;BME280;29744;49.078;12.878;2023-04-20T23:08:13;96061.13;;;15.40;35.36
44079;BME280;29744;49.078;12.878;2023-04-20T23:13:13;96064.16;;;15.39;35.16
44079;BME280;29744;49.078;12.878;2023-04-20T23:18:15;96054.81;;;15.36;35.04
44079;BME280;29744;49.078;12.878;2023-04-20T23:23:15;96058.19;;;15.33;35.34
44079;BME280;29744;49.078;12.878;2023-04-20T23:28:16;96057.41;;;15.33;35.71
44079;BME280;29744;49.078;12.878;2023-04-20T23:33:16;96055.81;;;15.32;35.12
44079;BME280;29744;49.078;12.878;2023-04-20T23:38:16;96056.50;;;15.29;35.56
44079;BME280;29744;49.078;12.878;2023-04-20T23:43:17;96054.94;;;15.28;35.33
44079;BME280;29744;49.078;12.878;2023-04-20T23:48:17;96063.38;;;15.26;35.45
44079;BME280;29744;49.078;12.878;2023-04-20T23:53:17;96062.13;;;15.24;35.29
44079;BME280;29744;49.078;12.878;2023-04-20T23:58:18;96056.28;;;15.22;35.78
